sensor_id;sensor_type;location;lat;lon;timestamp;temperature;humidity
27276;DHT22;14772;47.398;8.080;2022-10-03T00:06:31;16.80;99.90
27276;DHT22;14772;47.398;8.080;2022-10-03T00:11:37;16.70;99.90
27276;DHT22;14772;47.398;8.080;2022-10-03T00:16:40;16.70;99.90
27276;DHT22;14772;47.398;8.080;2022-10-03T00:21:45;16.70;99.90
27276;DHT22;14772;47.398;8.080;2022-10-03T00:26:48;16.70;99.90
27276;DHT22;14772;47.398;8.080;2022-10-03T00:31:51;16.80;99.90
27276;DHT22;14772;47.398;8.080;2022-10-03T00:36:53;16.70;99.90
27276;DHT22;14772;47.398;8.080;2022-10-03T00:47:54;16.70;99.90
27276;DHT22;14772;47.398;8.080;2022-10-03T00:53:11;16.70;99.90
27276;DHT22;14772;47.398;8.080;2022-10-03T00:58:20;16.70;99.90
27276;DHT22;14772;47.398;8.080;2022-10-03T01:03:32;16.70;99.90
27276;DHT22;14772;47.398;8.080;2022-10-03T01:08:38;16.40;99.90
27276;DHT22;14772;47.398;8.080;2022-10-03T01:13:42;16.50;99.90
27276;DHT22;14772;47.398;8.080;2022-10-03T01:18:46;16.50;99.90
27276;DHT22;14772;47.398;8.080;2022-10-03T01:29:31;16.50;99.90
27276;DHT22;14772;47.398;8.080;2022-10-03T01:34:33;16.60;99.90
27276;DHT22;14772;47.398;8.080;2022-10-03T01:39:36;16.60;99.90
27276;DHT22;14772;47.398;8.080;2022-10-03T01:44:40;16.60;99.90
27276;DHT22;14772;47.398;8.080;2022-10-03T01:49:42;16.60;99.90
27276;DHT22;14772;47.398;8.080;2022-10-03T01:54:43;16.50;99.90
27276;DHT22;14772;47.398;8.080;2022-10-03T01:59:45;16.30;99.90
27276;DHT22;14772;47.398;8.080;2022-10-03T02:04:50;16.40;99.90
27276;DHT22;14772;47.398;8.080;2022-10-03T02:09:56;16.30;99.90
27276;DHT22;14772;47.398;8.080;2022-10-03T02:14:58;16.30;99.90
27276;DHT22;14772;47.398;8.080;2022-10-03T02:20:00;16.20;99.90
27276;DHT22;14772;47.398;8.080;2022-10-03T02:25:19;16.10;99.90
27276;DHT22;14772;47.398;8.080;2022-10-03T02:30:19;16.10;99.90
27276;DHT22;14772;47.398;8.080;2022-10-03T03:03:23;15.80;99.90
27276;DHT22;14772;47.398;8.080;2022-10-03T03:08:35;15.80;99.90
27276;DHT22;14772;47.398;8.080;2022-10-03T03:19:36;15.50;99.90
27276;DHT22;14772;47.398;8.080;2022-10-03T03:24:41;15.70;99.90
27276;DHT22;14772;47.398;8.080;2022-10-03T03:29:46;15.60;99.90
27276;DHT22;14772;47.398;8.080;2022-10-03T03:34:50;15.60;99.90
27276;DHT22;14772;47.398;8.080;2022-10-03T03:39:59;15.60;99.90
27276;DHT22;14772;47.398;8.080;2022-10-03T03:50:48;15.60;99.90
27276;DHT22;14772;47.398;8.080;2022-10-03T03:55:53;15.60;99.90
27276;DHT22;14772;47.398;8.080;2022-10-03T04:06:42;15.60;99.90
27276;DHT22;14772;47.398;8.080;2022-10-03T04:11:49;15.50;99.90
27276;DHT22;14772;47.398;8.080;2022-10-03T04:16:57;15.40;99.90
27276;DHT22;14772;47.398;8.080;2022-10-03T04:22:06;15.50;99.90
27276;DHT22;14772;47.398;8.080;2022-10-03T04:27:19;15.40;99.90
27276;DHT22;14772;47.398;8.080;2022-10-03T04:32:51;15.30;99.90
27276;DHT22;14772;47.398;8.080;2022-10-03T04:37:51;15.20;99.90
27276;DHT22;14772;47.398;8.080;2022-10-03T04:42:56;15.30;99.90
27276;DHT22;14772;47.398;8.080;2022-10-03T04:47:57;15.40;99.90
27276;DHT22;14772;47.398;8.080;2022-10-03T04:53:07;15.40;99.90
27276;DHT22;14772;47.398;8.080;2022-10-03T04:58:04;15.30;99.90
27276;DHT22;14772;47.398;8.080;2022-10-03T05:03:04;15.30;99.90
27276;DHT22;14772;47.398;8.080;2022-10-03T05:08:11;15.20;99.90
27276;DHT22;14772;47.398;8.080;2022-10-03T05:13:11;15.20;99.90
27276;DHT22;14772;47.398;8.080;2022-10-03T05:18:16;15.30;99.90
27276;DHT22;14772;47.398;8.080;2022-10-03T05:23:18;15.30;99.90
27276;DHT22;14772;47.398;8.080;2022-10-03T05:28:23;15.20;99.90
27276;DHT22;14772;47.398;8.080;2022-10-03T05:33:28;15.10;99.90
27276;DHT22;14772;47.398;8.080;2022-10-03T05:38:48;15.20;99.90
27276;DHT22;14772;47.398;8.080;2022-10-03T05:43:50;15.10;99.90
27276;DHT22;14772;47.398;8.080;2022-10-03T05:48:52;15.10;99.90
27276;DHT22;14772;47.398;8.080;2022-10-03T05:59:33;14.90;99.90
27276;DHT22;14772;47.398;8.080;2022-10-03T06:15:59;15.00;99.90
27276;DHT22;14772;47.398;8.080;2022-10-03T06:21:10;15.00;99.90
27276;DHT22;14772;47.398;8.080;2022-10-03T06:43:46;15.10;99.90
27276;DHT22;14772;47.398;8.080;2022-10-03T07:00:16;15.10;99.90
27276;DHT22;14772;47.398;8.080;2022-10-03T10:20:21;16.70;99.90
27276;DHT22;14772;47.398;8.080;2022-10-03T10:25:37;17.00;99.90
27276;DHT22;14772;47.398;8.080;2022-10-03T12:06:02;17.30;99.90
27276;DHT22;14772;47.398;8.080;2022-10-03T12:11:23;17.30;99.90
27276;DHT22;14772;47.398;8.080;2022-10-03T12:16:55;17.50;99.90
27276;DHT22;14772;47.398;8.080;2022-10-03T12:45:04;17.40;99.90
27276;DHT22;14772;47.398;8.080;2022-10-03T13:19:12;17.50;99.90
27276;DHT22;14772;47.398;8.080;2022-10-03T13:24:28;17.60;99.90
27276;DHT22;14772;47.398;8.080;2022-10-03T13:29:32;17.70;99.90
27276;DHT22;14772;47.398;8.080;2022-10-03T13:34:44;17.70;99.90
27276;DHT22;14772;47.398;8.080;2022-10-03T13:39:45;17.80;99.90
27276;DHT22;14772;47.398;8.080;2022-10-03T13:44:50;18.00;99.90
27276;DHT22;14772;47.398;8.080;2022-10-03T13:49:52;18.10;99.90
27276;DHT22;14772;47.398;8.080;2022-10-03T13:55:02;18.40;99.90
27276;DHT22;14772;47.398;8.080;2022-10-03T14:00:05;18.50;99.90
27276;DHT22;14772;47.398;8.080;2022-10-03T14:05:16;18.60;99.90
27276;DHT22;14772;47.398;8.080;2022-10-03T14:10:43;18.90;99.90
27276;DHT22;14772;47.398;8.080;2022-10-03T14:15:32;19.20;99.90
27276;DHT22;14772;47.398;8.080;2022-10-03T14:20:34;19.40;99.90
27276;DHT22;14772;47.398;8.080;2022-10-03T14:25:34;19.60;99.90
27276;DHT22;14772;47.398;8.080;2022-10-03T14:30:35;19.70;99.90
27276;DHT22;14772;47.398;8.080;2022-10-03T14:35:38;20.00;99.90
27276;DHT22;14772;47.398;8.080;2022-10-03T14:40:39;20.10;99.90
27276;DHT22;14772;47.398;8.080;2022-10-03T14:45:41;20.50;99.90
27276;DHT22;14772;47.398;8.080;2022-10-03T14:50:41;20.50;99.90
27276;DHT22;14772;47.398;8.080;2022-10-03T14:55:44;20.20;99.90
27276;DHT22;14772;47.398;8.080;2022-10-03T15:00:43;19.90;99.90
27276;DHT22;14772;47.398;8.080;2022-10-03T15:06:16;19.80;99.90
27276;DHT22;14772;47.398;8.080;2022-10-03T15:11:03;19.80;99.90
27276;DHT22;14772;47.398;8.080;2022-10-03T15:16:01;19.80;99.90
27276;DHT22;14772;47.398;8.080;2022-10-03T15:20:59;19.60;99.90
27276;DHT22;14772;47.398;8.080;2022-10-03T15:25:56;19.60;99.90
27276;DHT22;14772;47.398;8.080;2022-10-03T15:31:06;19.40;99.90
27276;DHT22;14772;47.398;8.080;2022-10-03T15:36:09;19.30;99.90
27276;DHT22;14772;47.398;8.080;2022-10-03T15:41:13;19.20;99.90
27276;DHT22;14772;47.398;8.080;2022-10-03T16:08:59;18.50;99.90
27276;DHT22;14772;47.398;8.080;2022-10-03T16:14:11;18.40;99.90
27276;DHT22;14772;47.398;8.080;2022-10-03T16:19:32;18.30;99.90
27276;DHT22;14772;47.398;8.080;2022-10-03T16:29:39;18.00;99.90
27276;DHT22;14772;47.398;8.080;2022-10-03T17:29:45;16.70;99.90
27276;DHT22;14772;47.398;8.080;2022-10-03T17:34:46;16.40;99.90
27276;DHT22;14772;47.398;8.080;2022-10-03T17:39:55;16.30;99.90
27276;DHT22;14772;47.398;8.080;2022-10-03T17:44:57;16.20;99.90
27276;DHT22;14772;47.398;8.080;2022-10-03T17:49:59;16.10;99.90
27276;DHT22;14772;47.398;8.080;2022-10-03T17:55:00;16.00;99.90
27276;DHT22;14772;47.398;8.080;2022-10-03T18:00:01;15.90;99.90
27276;DHT22;14772;47.398;8.080;2022-10-03T18:05:11;15.80;99.90
27276;DHT22;14772;47.398;8.080;2022-10-03T18:10:18;15.70;99.90
27276;DHT22;14772;47.398;8.080;2022-10-03T18:21:03;15.50;99.90
27276;DHT22;14772;47.398;8.080;2022-10-03T18:26:04;15.40;99.90
27276;DHT22;14772;47.398;8.080;2022-10-03T18:31:05;15.30;99.90
27276;DHT22;14772;47.398;8.080;2022-10-03T18:36:10;15.20;99.90
27276;DHT22;14772;47.398;8.080;2022-10-03T18:41:12;15.00;99.90
27276;DHT22;14772;47.398;8.080;2022-10-03T18:46:17;14.90;99.90
27276;DHT22;14772;47.398;8.080;2022-10-03T18:56:31;14.70;99.90
27276;DHT22;14772;47.398;8.080;2022-10-03T19:01:32;14.60;99.90
27276;DHT22;14772;47.398;8.080;2022-10-03T19:06:33;14.60;99.90
27276;DHT22;14772;47.398;8.080;2022-10-03T19:11:33;14.40;99.90
27276;DHT22;14772;47.398;8.080;2022-10-03T19:22:02;14.40;99.90
27276;DHT22;14772;47.398;8.080;2022-10-03T19:27:02;14.30;99.90
27276;DHT22;14772;47.398;8.080;2022-10-03T19:32:02;14.30;99.90
27276;DHT22;14772;47.398;8.080;2022-10-03T19:37:01;14.20;99.90
27276;DHT22;14772;47.398;8.080;2022-10-03T19:42:11;14.20;99.90
27276;DHT22;14772;47.398;8.080;2022-10-03T19:47:05;14.10;99.90
27276;DHT22;14772;47.398;8.080;2022-10-03T19:52:13;14.10;99.90
27276;DHT22;14772;47.398;8.080;2022-10-03T20:02:23;13.80;99.90
27276;DHT22;14772;47.398;8.080;2022-10-03T20:07:32;13.70;99.90
27276;DHT22;14772;47.398;8.080;2022-10-03T20:12:30;13.70;99.90
27276;DHT22;14772;47.398;8.080;2022-10-03T20:17:29;13.60;99.90
27276;DHT22;14772;47.398;8.080;2022-10-03T20:22:29;13.60;99.90
27276;DHT22;14772;47.398;8.080;2022-10-03T20:27:35;13.50;99.90
27276;DHT22;14772;47.398;8.080;2022-10-03T20:32:36;13.40;99.90
27276;DHT22;14772;47.398;8.080;2022-10-03T20:37:40;13.20;99.90
27276;DHT22;14772;47.398;8.080;2022-10-03T20:42:39;13.30;99.90
27276;DHT22;14772;47.398;8.080;2022-10-03T20:47:48;13.20;99.90
27276;DHT22;14772;47.398;8.080;2022-10-03T20:52:50;13.00;99.90
27276;DHT22;14772;47.398;8.080;2022-10-03T20:57:53;13.00;99.90
27276;DHT22;14772;47.398;8.080;2022-10-03T21:02:55;12.90;99.90
27276;DHT22;14772;47.398;8.080;2022-10-03T21:07:55;12.90;99.90
27276;DHT22;14772;47.398;8.080;2022-10-03T21:12:55;12.90;99.90
27276;DHT22;14772;47.398;8.080;2022-10-03T21:17:55;12.90;99.90
27276;DHT22;14772;47.398;8.080;2022-10-03T21:22:55;12.90;99.90
27276;DHT22;14772;47.398;8.080;2022-10-03T21:27:55;12.80;99.90
27276;DHT22;14772;47.398;8.080;2022-10-03T21:38:19;12.70;99.90
27276;DHT22;14772;47.398;8.080;2022-10-03T21:43:25;12.70;99.90
27276;DHT22;14772;47.398;8.080;2022-10-03T21:48:28;12.70;99.90
27276;DHT22;14772;47.398;8.080;2022-10-03T21:53:32;12.70;99.90
27276;DHT22;14772;47.398;8.080;2022-10-03T21:58:52;12.70;99.90
27276;DHT22;14772;47.398;8.080;2022-10-03T22:03:52;12.70;99.90
27276;DHT22;14772;47.398;8.080;2022-10-03T22:08:51;12.60;99.90
27276;DHT22;14772;47.398;8.080;2022-10-03T22:13:56;12.60;99.90
27276;DHT22;14772;47.398;8.080;2022-10-03T22:19:14;12.50;99.90
27276;DHT22;14772;47.398;8.080;2022-10-03T22:24:14;12.30;99.90
27276;DHT22;14772;47.398;8.080;2022-10-03T22:29:15;12.40;99.90
27276;DHT22;14772;47.398;8.080;2022-10-03T22:34:22;12.40;99.90
27276;DHT22;14772;47.398;8.080;2022-10-03T22:39:21;12.40;99.90
27276;DHT22;14772;47.398;8.080;2022-10-03T22:44:21;12.40;99.90
27276;DHT22;14772;47.398;8.080;2022-10-03T22:49:20;12.30;99.90
27276;DHT22;14772;47.398;8.080;2022-10-03T22:54:18;12.40;99.90
27276;DHT22;14772;47.398;8.080;2022-10-03T22:59:19;12.30;99.90
27276;DHT22;14772;47.398;8.080;2022-10-03T23:04:27;12.20;99.90
27276;DHT22;14772;47.398;8.080;2022-10-03T23:14:36;11.90;99.90
27276;DHT22;14772;47.398;8.080;2022-10-03T23:19:39;12.10;99.90
27276;DHT22;14772;47.398;8.080;2022-10-03T23:24:40;12.10;99.90
27276;DHT22;14772;47.398;8.080;2022-10-03T23:29:38;12.10;99.90
27276;DHT22;14772;47.398;8.080;2022-10-03T23:34:46;12.10;99.90
27276;DHT22;14772;47.398;8.080;2022-10-03T23:45:11;12.10;99.90
27276;DHT22;14772;47.398;8.080;2022-10-03T23:50:11;12.00;99.90
27276;DHT22;14772;47.398;8.080;2022-10-03T23:55:14;12.10;99.90
